createdAt,value
2022-11-04T00:02:07.608Z,99626.25
2022-11-04T00:07:29.418Z,99628.66
2022-11-04T00:12:31.276Z,99636.16
2022-11-04T00:17:33.080Z,99641.38
2022-11-04T00:22:54.070Z,99653.63
2022-11-04T00:28:23.078Z,99657.88
2022-11-04T00:33:27.856Z,99667.31
2022-11-04T00:38:29.688Z,99681.13
2022-11-04T00:43:31.403Z,99677.09
2022-11-04T00:48:33.260Z,99674.81
2022-11-04T00:53:35.419Z,99681.13
2022-11-04T00:58:37.423Z,99675.06
2022-11-04T01:03:39.551Z,99683.16
2022-11-04T01:08:41.397Z,99684.88
2022-11-04T01:13:43.206Z,99681.34
2022-11-04T01:18:44.822Z,99677.84
2022-11-04T01:23:47.118Z,99687.75
2022-11-04T01:28:49.618Z,99695.91
2022-11-04T01:33:53.685Z,99698.66
2022-11-04T01:38:57.073Z,99703.75
2022-11-04T01:44:04.448Z,99705.84
2022-11-04T01:49:32.897Z,99703.75
2022-11-04T01:54:36.175Z,99712.47
2022-11-04T01:59:41.089Z,99716.13
2022-11-04T02:04:43.690Z,99723.13
2022-11-04T02:09:45.770Z,99717.47
2022-11-04T02:14:50.105Z,99717.59
2022-11-04T02:20:27.879Z,99718.41
2022-11-04T02:26:07.843Z,99720.09
2022-11-04T02:31:28.489Z,99713.06
2022-11-04T02:36:51.724Z,99711.88
2022-11-04T02:42:01.611Z,99709.59
2022-11-04T02:47:17.457Z,99701.22
2022-11-04T02:52:50.294Z,99708.47
2022-11-04T02:57:56.598Z,99703.16
2022-11-04T03:03:07.414Z,99697.81
2022-11-04T03:08:16.239Z,99706.66
2022-11-04T03:13:25.641Z,99694.66
2022-11-04T03:18:57.014Z,99699.50
2022-11-04T03:23:58.761Z,99695.25
2022-11-04T03:29:36.519Z,99694.28
2022-11-04T03:34:38.501Z,99696.94
2022-11-04T03:39:40.692Z,99694.63
2022-11-04T03:44:44.280Z,99699.16
2022-11-04T03:49:48.268Z,99693.59
2022-11-04T03:54:49.947Z,99688.00
2022-11-04T04:00:03.817Z,99685.97
2022-11-04T04:05:22.012Z,99681.22
2022-11-04T04:10:59.890Z,99688.94
2022-11-04T04:16:08.929Z,99693.09
2022-11-04T04:21:16.371Z,99695.25
2022-11-04T04:26:39.986Z,99702.06
2022-11-04T04:31:50.708Z,99694.41
2022-11-04T04:36:54.512Z,99698.56
2022-11-04T04:42:15.000Z,99707.28
2022-11-04T04:47:21.327Z,99713.19
2022-11-04T04:52:26.148Z,99725.09
2022-11-04T04:57:27.831Z,99728.09
2022-11-04T05:02:29.568Z,99725.06
2022-11-04T05:07:31.308Z,99730.41
2022-11-04T05:12:54.142Z,99734.41
2022-11-04T05:17:57.505Z,99736.81
2022-11-04T05:22:59.365Z,99733.94
2022-11-04T05:28:02.301Z,99728.31
2022-11-04T05:33:05.206Z,99730.53
2022-11-04T05:38:07.171Z,99729.16
2022-11-04T05:43:09.817Z,99735.69
2022-11-04T05:48:11.877Z,99741.03
2022-11-04T05:53:13.747Z,99742.72
2022-11-04T05:58:15.546Z,99733.66
2022-11-04T06:03:17.434Z,99746.25
2022-11-04T06:08:19.355Z,99739.38
2022-11-04T06:13:21.228Z,99750.38
2022-11-04T06:18:22.971Z,99756.78
2022-11-04T06:23:24.867Z,99757.06
2022-11-04T06:28:26.719Z,99756.91
2022-11-04T06:33:35.405Z,99763.81
2022-11-04T06:38:38.690Z,99769.56
2022-11-04T06:43:40.788Z,99781.50
2022-11-04T06:48:42.875Z,99786.31
2022-11-04T06:53:44.691Z,99790.38
2022-11-04T06:58:50.156Z,99803.78
2022-11-04T07:03:53.351Z,99799.66
2022-11-04T07:08:58.702Z,99801.63
2022-11-04T07:14:00.566Z,99807.22
2022-11-04T07:19:02.263Z,99811.34
2022-11-04T07:24:04.079Z,99820.72
2022-11-04T07:29:06.912Z,99827.34
2022-11-04T07:34:08.734Z,99828.84
2022-11-04T07:39:10.670Z,99834.47
2022-11-04T07:44:13.246Z,99841.09
2022-11-04T07:49:15.560Z,99852.84
2022-11-04T07:54:17.381Z,99856.75
2022-11-04T07:59:19.345Z,99860.84
2022-11-04T08:04:21.278Z,99871.03
2022-11-04T08:09:23.566Z,99876.06
2022-11-04T08:14:25.649Z,99879.72
2022-11-04T08:19:27.826Z,99883.34
2022-11-04T08:24:29.587Z,99884.06
2022-11-04T08:29:31.474Z,99895.47
2022-11-04T08:34:33.373Z,99904.03
2022-11-04T08:39:35.299Z,99909.88
2022-11-04T08:44:39.371Z,99913.09
2022-11-04T08:49:42.358Z,99915.53
2022-11-04T08:54:45.276Z,99923.84
2022-11-04T08:59:47.198Z,99939.81
2022-11-04T09:04:49.072Z,99945.03
2022-11-04T09:09:50.860Z,99942.66
2022-11-04T09:14:53.078Z,99951.84
2022-11-04T09:19:54.870Z,99944.91
2022-11-04T09:24:56.732Z,99948.53
2022-11-04T09:29:58.557Z,99948.22
2022-11-04T09:35:00.291Z,99944.16
2022-11-04T09:40:02.036Z,99937.66
2022-11-04T09:45:22.922Z,99942.88
2022-11-04T09:50:29.553Z,99956.31
2022-11-04T09:55:55.738Z,99957.28
2022-11-04T10:01:20.393Z,99969.94
2022-11-04T10:06:30.725Z,99975.59
2022-11-04T10:11:42.496Z,99978.03
2022-11-04T10:17:02.277Z,99969.22
2022-11-04T10:22:32.350Z,99969.00
2022-11-04T10:27:38.572Z,99970.03
2022-11-04T10:32:53.412Z,99966.66
2022-11-04T10:37:56.247Z,99969.53
2022-11-04T10:43:00.972Z,99988.50
2022-11-04T10:48:09.719Z,99992.00
2022-11-04T10:53:44.341Z,99997.44
2022-11-04T10:58:47.873Z,100008.53
2022-11-04T11:03:49.928Z,100009.81
2022-11-04T11:08:54.444Z,100014.63
2022-11-04T11:13:56.269Z,100038.69
2022-11-04T11:19:17.719Z,100030.88
2022-11-04T11:24:26.187Z,100019.81
2022-11-04T11:29:42.386Z,100030.59
2022-11-04T11:34:47.331Z,100047.22
2022-11-04T11:39:49.127Z,100044.00
2022-11-04T11:44:56.706Z,100060.34
2022-11-04T11:50:34.596Z,100070.75
2022-11-04T11:55:37.583Z,100079.19
2022-11-04T12:01:03.708Z,100082.16
2022-11-04T12:06:22.587Z,100085.66
2022-11-04T12:11:44.517Z,100080.91
2022-11-04T12:16:48.860Z,100084.72
2022-11-04T12:22:02.209Z,100088.34
2022-11-04T12:27:13.008Z,100093.34
2022-11-04T12:32:38.755Z,100088.97
2022-11-04T12:38:17.469Z,100098.34
2022-11-04T12:43:31.959Z,100102.81
2022-11-04T12:48:57.068Z,100104.94
2022-11-04T12:54:19.210Z,100109.28
2022-11-04T12:59:46.809Z,100112.84
2022-11-04T13:04:59.991Z,100125.84
2022-11-04T13:10:21.531Z,100131.91
2022-11-04T13:15:29.107Z,100142.66
2022-11-04T13:20:43.690Z,100143.38
2022-11-04T13:25:48.269Z,100148.94
2022-11-04T13:31:12.541Z,100147.97
2022-11-04T13:36:38.197Z,100153.53
2022-11-04T13:42:11.077Z,100159.06
2022-11-04T13:47:38.723Z,100162.16
2022-11-04T13:52:52.487Z,100175.38
2022-11-04T13:58:00.540Z,100175.03
2022-11-04T14:03:27.357Z,100171.03
2022-11-04T14:08:29.568Z,100185.69
2022-11-04T14:13:32.711Z,100201.88
2022-11-04T14:18:36.743Z,100217.00
2022-11-04T14:23:40.429Z,100215.97
2022-11-04T14:28:45.708Z,100223.19
2022-11-04T14:33:55.876Z,100228.16
2022-11-04T14:39:12.883Z,100230.53
2022-11-04T14:44:40.713Z,100241.25
2022-11-04T14:50:07.716Z,100248.94
2022-11-04T14:55:12.145Z,100259.81
2022-11-04T15:00:23.164Z,100266.38
2022-11-04T15:05:28.156Z,100277.50
2022-11-04T15:10:29.987Z,100283.78
2022-11-04T15:15:34.246Z,100294.66
2022-11-04T15:20:46.708Z,100308.22
2022-11-04T15:25:49.766Z,100316.97
2022-11-04T15:31:20.943Z,100316.41
2022-11-04T15:36:32.130Z,100325.06
2022-11-04T15:41:53.473Z,100334.00
2022-11-04T15:46:58.599Z,100340.09
2022-11-04T15:52:05.271Z,100345.50
2022-11-04T15:57:21.416Z,100345.59
2022-11-04T16:02:32.158Z,100357.31
2022-11-04T16:07:54.217Z,100365.00
2022-11-04T16:13:15.006Z,100374.13
2022-11-04T16:18:30.526Z,100369.88
2022-11-04T16:23:35.479Z,100379.97
2022-11-04T16:28:39.645Z,100386.13
2022-11-04T16:33:41.434Z,100391.38
2022-11-04T16:38:43.449Z,100405.81
2022-11-04T16:43:45.335Z,100416.19
2022-11-04T16:48:47.212Z,100422.88
2022-11-04T16:53:50.964Z,100432.09
2022-11-04T16:58:53.279Z,100439.31
2022-11-04T17:03:55.260Z,100454.69
2022-11-04T17:08:57.233Z,100455.94
2022-11-04T17:13:59.028Z,100470.50
2022-11-04T17:19:00.968Z,100464.44
2022-11-04T17:24:02.884Z,100462.59
2022-11-04T17:29:04.860Z,100467.94
2022-11-04T17:34:06.655Z,100471.56
2022-11-04T17:39:08.647Z,100483.22
2022-11-04T17:44:10.491Z,100492.38
2022-11-04T17:49:14.772Z,100497.63
2022-11-04T17:54:17.146Z,100511.22
2022-11-04T17:59:18.958Z,100521.41
2022-11-04T18:04:22.938Z,100518.44
2022-11-04T18:09:25.224Z,100528.25
2022-11-04T18:14:27.207Z,100530.91
2022-11-04T18:19:29.187Z,100539.28
2022-11-04T18:24:31.935Z,100546.34
2022-11-04T18:29:33.747Z,100550.22
2022-11-04T18:34:35.840Z,100560.72
2022-11-04T18:39:38.633Z,100566.69
2022-11-04T18:44:40.836Z,100562.13
2022-11-04T18:49:42.752Z,100571.25
2022-11-04T18:54:44.733Z,100577.72
2022-11-04T18:59:47.281Z,100583.78
2022-11-04T19:04:50.208Z,100591.13
2022-11-04T19:09:51.992Z,100583.72
2022-11-04T19:14:53.723Z,100597.13
2022-11-04T19:19:56.144Z,100601.31
2022-11-04T19:24:57.956Z,100596.25
2022-11-04T19:29:59.651Z,100606.25
2022-11-04T19:35:01.507Z,100619.38
2022-11-04T19:40:05.062Z,100629.50
2022-11-04T19:45:07.832Z,100640.41
2022-11-04T19:50:10.410Z,100645.94
2022-11-04T19:55:12.341Z,100650.00
2022-11-04T20:00:15.194Z,100661.22
2022-11-04T20:05:17.207Z,100666.28
2022-11-04T20:10:19.183Z,100673.63
2022-11-04T20:15:21.169Z,100680.31
2022-11-04T20:20:22.897Z,100701.09
2022-11-04T20:25:24.608Z,100704.53
2022-11-04T20:30:26.442Z,100703.78
2022-11-04T20:35:28.406Z,100709.53
2022-11-04T20:40:30.294Z,100716.91
2022-11-04T20:45:32.181Z,100729.19
2022-11-04T20:50:35.778Z,100732.31
2022-11-04T20:55:39.823Z,100732.88
2022-11-04T21:00:41.528Z,100744.16
2022-11-04T21:05:44.228Z,100751.72
2022-11-04T21:10:50.040Z,100760.06
2022-11-04T21:16:01.684Z,100774.06
2022-11-04T21:21:05.815Z,100785.84
2022-11-04T21:26:09.373Z,100791.56
2022-11-04T21:31:12.434Z,100799.41
2022-11-04T21:36:14.551Z,100803.09
2022-11-04T21:41:21.288Z,100810.13
2022-11-04T21:46:23.776Z,100815.03
2022-11-04T21:51:29.210Z,100811.50
2022-11-04T21:56:33.215Z,100825.44
2022-11-04T22:01:35.092Z,100835.41
2022-11-04T22:06:36.999Z,100843.66
2022-11-04T22:11:39.985Z,100845.44
2022-11-04T22:16:41.729Z,100838.16
2022-11-04T22:21:45.198Z,100839.97
2022-11-04T22:26:47.983Z,100840.41
2022-11-04T22:31:49.849Z,100847.69
2022-11-04T22:36:51.727Z,100852.16
2022-11-04T22:41:53.536Z,100858.94
2022-11-04T22:46:55.386Z,100865.31
2022-11-04T22:51:57.724Z,100858.59
2022-11-04T22:56:59.488Z,100863.66
2022-11-04T23:02:01.317Z,100873.41
2022-11-04T23:07:03.138Z,100878.53
2022-11-04T23:12:23.967Z,100878.09
2022-11-04T23:17:44.634Z,100877.00
2022-11-04T23:23:05.209Z,100886.78
2022-11-04T23:28:36.255Z,100891.75
2022-11-04T23:33:56.677Z,100893.38
2022-11-04T23:38:58.327Z,100882.81
2022-11-04T23:44:00.214Z,100897.25
2022-11-04T23:49:07.808Z,100915.97
2022-11-04T23:54:28.257Z,100909.91
2022-11-04T23:59:48.568Z,100911.75
